sensor_id;sensor_type;location;lat;lon;timestamp;P1;durP1;ratioP1;P2;durP2;ratioP2
70420;SDS011;57848;51.938;15.520;2024-02-21T00:02:03;14.57;;;3.20;;
70420;SDS011;57848;51.938;15.520;2024-02-21T00:04:28;17.40;;;3.53;;
70420;SDS011;57848;51.938;15.520;2024-02-21T00:06:54;23.40;;;4.50;;
70420;SDS011;57848;51.938;15.520;2024-02-21T00:09:19;17.53;;;4.37;;
70420;SDS011;57848;51.938;15.520;2024-02-21T00:11:45;20.27;;;4.80;;
70420;SDS011;57848;51.938;15.520;2024-02-21T00:14:10;15.57;;;4.37;;
70420;SDS011;57848;51.938;15.520;2024-02-21T00:16:36;17.37;;;4.13;;
70420;SDS011;57848;51.938;15.520;2024-02-21T00:19:01;17.67;;;4.20;;
70420;SDS011;57848;51.938;15.520;2024-02-21T00:21:27;14.40;;;3.60;;
70420;SDS011;57848;51.938;15.520;2024-02-21T00:23:52;17.43;;;4.37;;
70420;SDS011;57848;51.938;15.520;2024-02-21T00:26:17;19.00;;;4.43;;
70420;SDS011;57848;51.938;15.520;2024-02-21T00:28:43;17.77;;;4.30;;
70420;SDS011;57848;51.938;15.520;2024-02-21T00:31:08;14.80;;;4.20;;
70420;SDS011;57848;51.938;15.520;2024-02-21T00:33:34;18.70;;;3.83;;
70420;SDS011;57848;51.938;15.520;2024-02-21T00:35:59;22.77;;;3.80;;
70420;SDS011;57848;51.938;15.520;2024-02-21T00:38:24;14.57;;;3.23;;
70420;SDS011;57848;51.938;15.520;2024-02-21T00:40:50;18.20;;;3.60;;
70420;SDS011;57848;51.938;15.520;2024-02-21T00:43:15;18.83;;;3.92;;
70420;SDS011;57848;51.938;15.520;2024-02-21T00:45:40;20.63;;;3.67;;
70420;SDS011;57848;51.938;15.520;2024-02-21T00:48:06;22.07;;;4.17;;
70420;SDS011;57848;51.938;15.520;2024-02-21T00:50:32;23.20;;;3.45;;
70420;SDS011;57848;51.938;15.520;2024-02-21T00:52:57;21.30;;;3.97;;
70420;SDS011;57848;51.938;15.520;2024-02-21T00:55:23;15.90;;;3.70;;
70420;SDS011;57848;51.938;15.520;2024-02-21T00:57:48;11.33;;;3.40;;
70420;SDS011;57848;51.938;15.520;2024-02-21T01:00:13;15.17;;;3.50;;
70420;SDS011;57848;51.938;15.520;2024-02-21T01:02:39;17.33;;;3.05;;
70420;SDS011;57848;51.938;15.520;2024-02-21T01:05:05;22.83;;;3.93;;
70420;SDS011;57848;51.938;15.520;2024-02-21T01:07:30;18.40;;;3.45;;
70420;SDS011;57848;51.938;15.520;2024-02-21T01:09:56;15.53;;;3.83;;
70420;SDS011;57848;51.938;15.520;2024-02-21T01:12:21;16.03;;;3.90;;
70420;SDS011;57848;51.938;15.520;2024-02-21T01:14:46;23.73;;;5.03;;
70420;SDS011;57848;51.938;15.520;2024-02-21T01:17:12;15.40;;;4.32;;
70420;SDS011;57848;51.938;15.520;2024-02-21T01:19:38;15.73;;;4.10;;
70420;SDS011;57848;51.938;15.520;2024-02-21T01:22:03;17.10;;;4.18;;
70420;SDS011;57848;51.938;15.520;2024-02-21T01:24:29;15.93;;;3.50;;
70420;SDS011;57848;51.938;15.520;2024-02-21T01:26:54;16.33;;;3.80;;
70420;SDS011;57848;51.938;15.520;2024-02-21T01:29:20;20.15;;;4.07;;
70420;SDS011;57848;51.938;15.520;2024-02-21T01:31:45;18.10;;;4.10;;
70420;SDS011;57848;51.938;15.520;2024-02-21T01:34:12;15.15;;;3.10;;
70420;SDS011;57848;51.938;15.520;2024-02-21T01:36:38;16.87;;;3.80;;
70420;SDS011;57848;51.938;15.520;2024-02-21T01:39:03;12.63;;;3.63;;
70420;SDS011;57848;51.938;15.520;2024-02-21T01:41:31;16.15;;;2.90;;
70420;SDS011;57848;51.938;15.520;2024-02-21T01:43:57;20.97;;;4.27;;
70420;SDS011;57848;51.938;15.520;2024-02-21T01:46:23;21.50;;;4.00;;
70420;SDS011;57848;51.938;15.520;2024-02-21T01:48:54;21.05;;;3.55;;
70420;SDS011;57848;51.938;15.520;2024-02-21T01:51:21;16.25;;;3.72;;
70420;SDS011;57848;51.938;15.520;2024-02-21T01:53:46;19.83;;;4.13;;
70420;SDS011;57848;51.938;15.520;2024-02-21T01:56:12;15.65;;;3.72;;
70420;SDS011;57848;51.938;15.520;2024-02-21T01:58:38;21.57;;;3.83;;
70420;SDS011;57848;51.938;15.520;2024-02-21T02:01:05;15.57;;;3.88;;
70420;SDS011;57848;51.938;15.520;2024-02-21T02:03:31;15.57;;;3.42;;
70420;SDS011;57848;51.938;15.520;2024-02-21T02:05:57;15.33;;;3.50;;
70420;SDS011;57848;51.938;15.520;2024-02-21T02:08:22;16.95;;;3.90;;
70420;SDS011;57848;51.938;15.520;2024-02-21T02:10:48;15.07;;;4.50;;
70420;SDS011;57848;51.938;15.520;2024-02-21T02:13:13;21.07;;;3.77;;
70420;SDS011;57848;51.938;15.520;2024-02-21T02:18:08;9.57;;;2.97;;
70420;SDS011;57848;51.938;15.520;2024-02-21T02:20:35;17.17;;;3.88;;
70420;SDS011;57848;51.938;15.520;2024-02-21T02:23:01;14.30;;;3.55;;
70420;SDS011;57848;51.938;15.520;2024-02-21T02:25:35;11.93;;;3.22;;
70420;SDS011;57848;51.938;15.520;2024-02-21T02:28:01;17.63;;;4.10;;
70420;SDS011;57848;51.938;15.520;2024-02-21T02:30:26;13.57;;;4.00;;
70420;SDS011;57848;51.938;15.520;2024-02-21T02:32:51;15.27;;;3.40;;
70420;SDS011;57848;51.938;15.520;2024-02-21T02:35:17;11.37;;;3.53;;
70420;SDS011;57848;51.938;15.520;2024-02-21T02:37:49;18.17;;;5.00;;
70420;SDS011;57848;51.938;15.520;2024-02-21T02:40:15;17.40;;;3.57;;
70420;SDS011;57848;51.938;15.520;2024-02-21T02:42:40;15.63;;;3.47;;
70420;SDS011;57848;51.938;15.520;2024-02-21T02:45:06;18.93;;;3.40;;
70420;SDS011;57848;51.938;15.520;2024-02-21T02:47:32;17.40;;;3.42;;
70420;SDS011;57848;51.938;15.520;2024-02-21T02:49:59;17.13;;;3.37;;
70420;SDS011;57848;51.938;15.520;2024-02-21T02:52:25;17.13;;;3.80;;
70420;SDS011;57848;51.938;15.520;2024-02-21T02:54:50;18.67;;;3.53;;
70420;SDS011;57848;51.938;15.520;2024-02-21T02:57:17;12.82;;;3.80;;
70420;SDS011;57848;51.938;15.520;2024-02-21T02:59:47;16.95;;;4.10;;
70420;SDS011;57848;51.938;15.520;2024-02-21T03:02:16;12.07;;;3.03;;
70420;SDS011;57848;51.938;15.520;2024-02-21T03:04:42;20.13;;;4.00;;
70420;SDS011;57848;51.938;15.520;2024-02-21T03:07:08;17.83;;;3.45;;
70420;SDS011;57848;51.938;15.520;2024-02-21T03:09:33;13.03;;;3.60;;
70420;SDS011;57848;51.938;15.520;2024-02-21T03:11:59;13.03;;;3.50;;
70420;SDS011;57848;51.938;15.520;2024-02-21T03:14:30;14.85;;;3.30;;
70420;SDS011;57848;51.938;15.520;2024-02-21T03:16:55;16.17;;;3.67;;
70420;SDS011;57848;51.938;15.520;2024-02-21T03:19:21;16.85;;;3.33;;
70420;SDS011;57848;51.938;15.520;2024-02-21T03:21:47;15.55;;;4.07;;
70420;SDS011;57848;51.938;15.520;2024-02-21T03:24:14;14.27;;;3.03;;
70420;SDS011;57848;51.938;15.520;2024-02-21T03:26:40;22.60;;;3.78;;
70420;SDS011;57848;51.938;15.520;2024-02-21T03:29:05;13.40;;;3.40;;
70420;SDS011;57848;51.938;15.520;2024-02-21T03:31:31;19.70;;;3.87;;
70420;SDS011;57848;51.938;15.520;2024-02-21T03:33:56;16.98;;;4.05;;
70420;SDS011;57848;51.938;15.520;2024-02-21T03:36:22;16.67;;;4.23;;
70420;SDS011;57848;51.938;15.520;2024-02-21T03:38:47;13.20;;;3.63;;
70420;SDS011;57848;51.938;15.520;2024-02-21T03:41:12;21.60;;;4.00;;
70420;SDS011;57848;51.938;15.520;2024-02-21T03:43:38;11.55;;;3.45;;
70420;SDS011;57848;51.938;15.520;2024-02-21T03:46:04;15.60;;;3.50;;
70420;SDS011;57848;51.938;15.520;2024-02-21T03:48:29;18.67;;;4.18;;
70420;SDS011;57848;51.938;15.520;2024-02-21T03:50:55;13.07;;;3.37;;
70420;SDS011;57848;51.938;15.520;2024-02-21T03:53:20;12.93;;;3.20;;
70420;SDS011;57848;51.938;15.520;2024-02-21T03:55:46;22.20;;;3.90;;
70420;SDS011;57848;51.938;15.520;2024-02-21T03:58:11;17.23;;;4.50;;
70420;SDS011;57848;51.938;15.520;2024-02-21T04:00:36;12.38;;;3.63;;
70420;SDS011;57848;51.938;15.520;2024-02-21T04:03:02;14.27;;;3.03;;
70420;SDS011;57848;51.938;15.520;2024-02-21T04:05:27;11.83;;;3.60;;
70420;SDS011;57848;51.938;15.520;2024-02-21T04:07:53;11.30;;;2.70;;
70420;SDS011;57848;51.938;15.520;2024-02-21T04:10:18;17.23;;;3.80;;
70420;SDS011;57848;51.938;15.520;2024-02-21T04:12:44;19.77;;;3.20;;
70420;SDS011;57848;51.938;15.520;2024-02-21T04:15:09;13.43;;;3.03;;
70420;SDS011;57848;51.938;15.520;2024-02-21T04:17:35;12.43;;;3.10;;
70420;SDS011;57848;51.938;15.520;2024-02-21T04:20:03;9.43;;;2.65;;
70420;SDS011;57848;51.938;15.520;2024-02-21T04:22:30;15.27;;;3.60;;
70420;SDS011;57848;51.938;15.520;2024-02-21T04:24:59;15.17;;;3.57;;
70420;SDS011;57848;51.938;15.520;2024-02-21T04:27:24;13.00;;;2.90;;
70420;SDS011;57848;51.938;15.520;2024-02-21T04:29:50;15.30;;;3.17;;
70420;SDS011;57848;51.938;15.520;2024-02-21T04:32:15;13.40;;;3.40;;
70420;SDS011;57848;51.938;15.520;2024-02-21T04:34:41;16.17;;;2.90;;
70420;SDS011;57848;51.938;15.520;2024-02-21T04:37:06;16.20;;;3.07;;
70420;SDS011;57848;51.938;15.520;2024-02-21T04:39:32;15.93;;;3.63;;
70420;SDS011;57848;51.938;15.520;2024-02-21T04:41:57;14.43;;;3.40;;
70420;SDS011;57848;51.938;15.520;2024-02-21T04:44:22;13.40;;;2.70;;
70420;SDS011;57848;51.938;15.520;2024-02-21T04:46:48;15.67;;;3.47;;
70420;SDS011;57848;51.938;15.520;2024-02-21T04:49:13;15.57;;;3.33;;
70420;SDS011;57848;51.938;15.520;2024-02-21T04:51:39;14.27;;;2.97;;
70420;SDS011;57848;51.938;15.520;2024-02-21T04:54:05;14.73;;;3.10;;
70420;SDS011;57848;51.938;15.520;2024-02-21T04:56:31;11.80;;;3.23;;
70420;SDS011;57848;51.938;15.520;2024-02-21T04:58:56;14.03;;;3.73;;
70420;SDS011;57848;51.938;15.520;2024-02-21T05:01:21;16.60;;;3.23;;
70420;SDS011;57848;51.938;15.520;2024-02-21T05:03:47;13.77;;;3.90;;
70420;SDS011;57848;51.938;15.520;2024-02-21T05:06:12;15.25;;;3.80;;
70420;SDS011;57848;51.938;15.520;2024-02-21T05:08:38;13.10;;;3.17;;
70420;SDS011;57848;51.938;15.520;2024-02-21T05:11:03;20.33;;;3.83;;
70420;SDS011;57848;51.938;15.520;2024-02-21T05:13:28;17.13;;;3.80;;
70420;SDS011;57848;51.938;15.520;2024-02-21T05:15:54;13.97;;;3.80;;
70420;SDS011;57848;51.938;15.520;2024-02-21T05:18:19;12.95;;;3.72;;
70420;SDS011;57848;51.938;15.520;2024-02-21T05:20:45;14.15;;;3.92;;
70420;SDS011;57848;51.938;15.520;2024-02-21T05:23:11;16.43;;;3.77;;
70420;SDS011;57848;51.938;15.520;2024-02-21T05:25:37;12.10;;;3.50;;
70420;SDS011;57848;51.938;15.520;2024-02-21T05:28:02;14.90;;;3.83;;
70420;SDS011;57848;51.938;15.520;2024-02-21T05:30:28;13.63;;;3.60;;
70420;SDS011;57848;51.938;15.520;2024-02-21T05:32:54;16.25;;;3.63;;
70420;SDS011;57848;51.938;15.520;2024-02-21T05:35:24;12.45;;;4.20;;
70420;SDS011;57848;51.938;15.520;2024-02-21T05:37:50;16.23;;;4.30;;
70420;SDS011;57848;51.938;15.520;2024-02-21T05:40:17;16.65;;;4.32;;
70420;SDS011;57848;51.938;15.520;2024-02-21T05:42:43;17.00;;;4.10;;
70420;SDS011;57848;51.938;15.520;2024-02-21T05:45:08;13.60;;;3.43;;
70420;SDS011;57848;51.938;15.520;2024-02-21T05:47:34;14.43;;;3.23;;
70420;SDS011;57848;51.938;15.520;2024-02-21T05:49:59;16.40;;;3.50;;
70420;SDS011;57848;51.938;15.520;2024-02-21T05:52:25;12.70;;;3.70;;
70420;SDS011;57848;51.938;15.520;2024-02-21T05:54:50;13.67;;;3.60;;
70420;SDS011;57848;51.938;15.520;2024-02-21T05:57:16;15.37;;;3.60;;
70420;SDS011;57848;51.938;15.520;2024-02-21T05:59:43;16.42;;;3.92;;
70420;SDS011;57848;51.938;15.520;2024-02-21T06:02:08;15.17;;;3.13;;
70420;SDS011;57848;51.938;15.520;2024-02-21T06:04:34;17.48;;;3.83;;
70420;SDS011;57848;51.938;15.520;2024-02-21T06:07:00;12.03;;;3.97;;
70420;SDS011;57848;51.938;15.520;2024-02-21T06:09:26;15.48;;;3.97;;
70420;SDS011;57848;51.938;15.520;2024-02-21T06:11:52;15.88;;;4.35;;
70420;SDS011;57848;51.938;15.520;2024-02-21T06:14:18;18.73;;;4.47;;
70420;SDS011;57848;51.938;15.520;2024-02-21T06:16:43;19.13;;;3.97;;
70420;SDS011;57848;51.938;15.520;2024-02-21T06:19:09;21.08;;;3.67;;
70420;SDS011;57848;51.938;15.520;2024-02-21T06:21:34;14.20;;;3.73;;
70420;SDS011;57848;51.938;15.520;2024-02-21T06:24:00;16.43;;;4.13;;
70420;SDS011;57848;51.938;15.520;2024-02-21T06:26:25;17.08;;;4.30;;
70420;SDS011;57848;51.938;15.520;2024-02-21T06:28:51;18.27;;;3.80;;
70420;SDS011;57848;51.938;15.520;2024-02-21T06:31:16;14.03;;;4.17;;
70420;SDS011;57848;51.938;15.520;2024-02-21T06:33:42;17.65;;;4.30;;
70420;SDS011;57848;51.938;15.520;2024-02-21T06:36:08;15.07;;;5.00;;
70420;SDS011;57848;51.938;15.520;2024-02-21T06:38:33;15.50;;;4.47;;
70420;SDS011;57848;51.938;15.520;2024-02-21T06:40:59;14.63;;;4.37;;
70420;SDS011;57848;51.938;15.520;2024-02-21T06:43:25;17.05;;;4.10;;
70420;SDS011;57848;51.938;15.520;2024-02-21T06:45:51;17.10;;;4.00;;
70420;SDS011;57848;51.938;15.520;2024-02-21T06:48:20;13.43;;;3.90;;
70420;SDS011;57848;51.938;15.520;2024-02-21T06:50:45;18.17;;;4.55;;
70420;SDS011;57848;51.938;15.520;2024-02-21T06:53:11;21.07;;;4.57;;
70420;SDS011;57848;51.938;15.520;2024-02-21T06:55:37;17.67;;;4.37;;
70420;SDS011;57848;51.938;15.520;2024-02-21T06:58:02;14.02;;;3.63;;
70420;SDS011;57848;51.938;15.520;2024-02-21T07:00:31;13.80;;;4.10;;
70420;SDS011;57848;51.938;15.520;2024-02-21T07:02:56;16.08;;;4.20;;
70420;SDS011;57848;51.938;15.520;2024-02-21T07:05:23;16.67;;;3.97;;
70420;SDS011;57848;51.938;15.520;2024-02-21T07:07:48;16.43;;;4.17;;
70420;SDS011;57848;51.938;15.520;2024-02-21T07:10:14;14.60;;;3.73;;
70420;SDS011;57848;51.938;15.520;2024-02-21T07:12:39;17.93;;;6.30;;
70420;SDS011;57848;51.938;15.520;2024-02-21T07:15:08;20.17;;;5.28;;
70420;SDS011;57848;51.938;15.520;2024-02-21T07:17:34;15.20;;;3.95;;
70420;SDS011;57848;51.938;15.520;2024-02-21T07:20:00;17.57;;;4.03;;
70420;SDS011;57848;51.938;15.520;2024-02-21T07:22:26;16.20;;;3.70;;
70420;SDS011;57848;51.938;15.520;2024-02-21T07:24:52;18.53;;;4.40;;
70420;SDS011;57848;51.938;15.520;2024-02-21T07:27:17;13.83;;;3.87;;
70420;SDS011;57848;51.938;15.520;2024-02-21T07:29:42;18.10;;;4.53;;
70420;SDS011;57848;51.938;15.520;2024-02-21T07:32:12;15.13;;;3.80;;
70420;SDS011;57848;51.938;15.520;2024-02-21T07:34:38;13.65;;;4.32;;
70420;SDS011;57848;51.938;15.520;2024-02-21T07:37:03;16.30;;;4.20;;
70420;SDS011;57848;51.938;15.520;2024-02-21T07:39:28;12.17;;;3.33;;
70420;SDS011;57848;51.938;15.520;2024-02-21T07:41:54;20.47;;;3.93;;
70420;SDS011;57848;51.938;15.520;2024-02-21T07:44:19;12.80;;;3.60;;
70420;SDS011;57848;51.938;15.520;2024-02-21T07:46:44;15.57;;;4.00;;
70420;SDS011;57848;51.938;15.520;2024-02-21T07:49:10;15.53;;;3.73;;
70420;SDS011;57848;51.938;15.520;2024-02-21T07:51:35;14.73;;;3.87;;
70420;SDS011;57848;51.938;15.520;2024-02-21T07:54:01;13.52;;;4.30;;
70420;SDS011;57848;51.938;15.520;2024-02-21T07:56:28;16.77;;;3.92;;
70420;SDS011;57848;51.938;15.520;2024-02-21T07:58:54;17.40;;;3.73;;
70420;SDS011;57848;51.938;15.520;2024-02-21T08:01:19;16.83;;;3.65;;
70420;SDS011;57848;51.938;15.520;2024-02-21T08:03:47;16.73;;;4.23;;
70420;SDS011;57848;51.938;15.520;2024-02-21T08:06:13;15.88;;;3.65;;
70420;SDS011;57848;51.938;15.520;2024-02-21T08:08:39;10.33;;;3.33;;
70420;SDS011;57848;51.938;15.520;2024-02-21T08:11:05;18.02;;;3.70;;
70420;SDS011;57848;51.938;15.520;2024-02-21T08:13:30;21.90;;;4.07;;
70420;SDS011;57848;51.938;15.520;2024-02-21T08:15:56;13.65;;;4.18;;
70420;SDS011;57848;51.938;15.520;2024-02-21T08:18:22;14.40;;;3.88;;
70420;SDS011;57848;51.938;15.520;2024-02-21T08:20:48;13.30;;;4.33;;
70420;SDS011;57848;51.938;15.520;2024-02-21T08:23:15;16.20;;;4.70;;
70420;SDS011;57848;51.938;15.520;2024-02-21T08:25:41;18.23;;;4.00;;
70420;SDS011;57848;51.938;15.520;2024-02-21T08:28:06;16.35;;;4.32;;
70420;SDS011;57848;51.938;15.520;2024-02-21T08:30:33;18.15;;;4.25;;
70420;SDS011;57848;51.938;15.520;2024-02-21T08:32:58;16.70;;;4.17;;
70420;SDS011;57848;51.938;15.520;2024-02-21T08:35:24;15.87;;;4.13;;
70420;SDS011;57848;51.938;15.520;2024-02-21T08:37:49;11.00;;;3.87;;
70420;SDS011;57848;51.938;15.520;2024-02-21T08:40:15;13.00;;;3.90;;
70420;SDS011;57848;51.938;15.520;2024-02-21T08:42:46;14.87;;;4.17;;
70420;SDS011;57848;51.938;15.520;2024-02-21T08:45:11;18.38;;;4.30;;
70420;SDS011;57848;51.938;15.520;2024-02-21T08:47:39;15.27;;;4.27;;
70420;SDS011;57848;51.938;15.520;2024-02-21T08:50:05;14.82;;;4.07;;
70420;SDS011;57848;51.938;15.520;2024-02-21T08:52:31;17.27;;;4.30;;
70420;SDS011;57848;51.938;15.520;2024-02-21T08:54:57;15.33;;;4.27;;
70420;SDS011;57848;51.938;15.520;2024-02-21T08:57:22;16.60;;;4.10;;
70420;SDS011;57848;51.938;15.520;2024-02-21T08:59:47;18.50;;;4.63;;
70420;SDS011;57848;51.938;15.520;2024-02-21T09:02:13;14.30;;;3.70;;
70420;SDS011;57848;51.938;15.520;2024-02-21T09:04:41;19.40;;;3.70;;
70420;SDS011;57848;51.938;15.520;2024-02-21T09:07:06;13.55;;;3.72;;
70420;SDS011;57848;51.938;15.520;2024-02-21T09:09:32;13.50;;;4.03;;
70420;SDS011;57848;51.938;15.520;2024-02-21T09:11:58;14.67;;;4.20;;
70420;SDS011;57848;51.938;15.520;2024-02-21T09:14:30;15.27;;;4.43;;
70420;SDS011;57848;51.938;15.520;2024-02-21T09:16:59;16.35;;;3.92;;
70420;SDS011;57848;51.938;15.520;2024-02-21T09:19:25;19.30;;;4.23;;
70420;SDS011;57848;51.938;15.520;2024-02-21T09:21:50;17.63;;;4.03;;
70420;SDS011;57848;51.938;15.520;2024-02-21T09:24:16;12.73;;;4.23;;
70420;SDS011;57848;51.938;15.520;2024-02-21T09:26:42;16.88;;;4.25;;
70420;SDS011;57848;51.938;15.520;2024-02-21T09:29:08;17.13;;;4.57;;
70420;SDS011;57848;51.938;15.520;2024-02-21T09:31:33;16.10;;;4.73;;
70420;SDS011;57848;51.938;15.520;2024-02-21T09:33:59;25.65;;;5.45;;
70420;SDS011;57848;51.938;15.520;2024-02-21T09:36:24;20.07;;;6.27;;
70420;SDS011;57848;51.938;15.520;2024-02-21T09:38:50;16.07;;;4.93;;
70420;SDS011;57848;51.938;15.520;2024-02-21T09:41:16;22.37;;;4.63;;
70420;SDS011;57848;51.938;15.520;2024-02-21T09:43:43;14.27;;;5.07;;
70420;SDS011;57848;51.938;15.520;2024-02-21T09:46:15;13.15;;;4.60;;
70420;SDS011;57848;51.938;15.520;2024-02-21T09:51:30;19.48;;;4.40;;
70420;SDS011;57848;51.938;15.520;2024-02-21T09:53:57;14.87;;;4.87;;
70420;SDS011;57848;51.938;15.520;2024-02-21T09:56:24;15.35;;;5.10;;
70420;SDS011;57848;51.938;15.520;2024-02-21T09:58:50;10.47;;;3.80;;
70420;SDS011;57848;51.938;15.520;2024-02-21T10:01:15;20.48;;;5.10;;
70420;SDS011;57848;51.938;15.520;2024-02-21T10:03:41;17.37;;;4.47;;
70420;SDS011;57848;51.938;15.520;2024-02-21T10:06:08;12.43;;;4.63;;
70420;SDS011;57848;51.938;15.520;2024-02-21T10:08:34;14.48;;;4.60;;
70420;SDS011;57848;51.938;15.520;2024-02-21T10:10:59;18.30;;;4.63;;
70420;SDS011;57848;51.938;15.520;2024-02-21T10:13:26;14.38;;;4.13;;
70420;SDS011;57848;51.938;15.520;2024-02-21T10:16:03;18.53;;;5.17;;
70420;SDS011;57848;51.938;15.520;2024-02-21T10:18:29;13.35;;;5.28;;
70420;SDS011;57848;51.938;15.520;2024-02-21T10:21:01;13.38;;;5.65;;
70420;SDS011;57848;51.938;15.520;2024-02-21T10:23:27;16.43;;;5.00;;
70420;SDS011;57848;51.938;15.520;2024-02-21T10:25:52;13.82;;;5.50;;
70420;SDS011;57848;51.938;15.520;2024-02-21T10:28:18;15.27;;;4.80;;
70420;SDS011;57848;51.938;15.520;2024-02-21T10:30:51;14.95;;;4.50;;
70420;SDS011;57848;51.938;15.520;2024-02-21T10:33:17;14.03;;;4.73;;
70420;SDS011;57848;51.938;15.520;2024-02-21T10:35:45;17.67;;;4.78;;
70420;SDS011;57848;51.938;15.520;2024-02-21T10:38:11;13.30;;;4.50;;
70420;SDS011;57848;51.938;15.520;2024-02-21T10:40:38;15.65;;;4.80;;
70420;SDS011;57848;51.938;15.520;2024-02-21T10:43:03;14.03;;;5.10;;
70420;SDS011;57848;51.938;15.520;2024-02-21T10:45:37;17.55;;;5.50;;
70420;SDS011;57848;51.938;15.520;2024-02-21T10:48:06;19.50;;;5.00;;
70420;SDS011;57848;51.938;15.520;2024-02-21T10:50:39;13.98;;;4.72;;
70420;SDS011;57848;51.938;15.520;2024-02-21T10:53:40;16.08;;;5.22;;
70420;SDS011;57848;51.938;15.520;2024-02-21T10:58:46;17.13;;;4.90;;
70420;SDS011;57848;51.938;15.520;2024-02-21T11:01:13;13.18;;;4.65;;
70420;SDS011;57848;51.938;15.520;2024-02-21T11:03:41;15.50;;;4.32;;
70420;SDS011;57848;51.938;15.520;2024-02-21T11:06:09;15.57;;;4.65;;
70420;SDS011;57848;51.938;15.520;2024-02-21T11:08:36;17.35;;;4.80;;
70420;SDS011;57848;51.938;15.520;2024-02-21T11:11:01;14.90;;;4.60;;
70420;SDS011;57848;51.938;15.520;2024-02-21T11:13:31;18.55;;;4.68;;
70420;SDS011;57848;51.938;15.520;2024-02-21T11:16:09;14.43;;;4.70;;
70420;SDS011;57848;51.938;15.520;2024-02-21T11:18:38;14.65;;;4.68;;
70420;SDS011;57848;51.938;15.520;2024-02-21T11:21:04;14.30;;;4.53;;
70420;SDS011;57848;51.938;15.520;2024-02-21T11:23:32;17.23;;;4.22;;
70420;SDS011;57848;51.938;15.520;2024-02-21T11:26:07;11.77;;;4.10;;
70420;SDS011;57848;51.938;15.520;2024-02-21T11:28:44;16.23;;;4.72;;
70420;SDS011;57848;51.938;15.520;2024-02-21T11:31:20;14.10;;;4.68;;
70420;SDS011;57848;51.938;15.520;2024-02-21T11:33:46;17.50;;;4.33;;
70420;SDS011;57848;51.938;15.520;2024-02-21T11:36:22;13.30;;;4.80;;
70420;SDS011;57848;51.938;15.520;2024-02-21T11:38:51;16.70;;;4.78;;
70420;SDS011;57848;51.938;15.520;2024-02-21T11:41:18;12.23;;;4.65;;
70420;SDS011;57848;51.938;15.520;2024-02-21T11:43:46;13.87;;;4.43;;
70420;SDS011;57848;51.938;15.520;2024-02-21T11:46:15;15.05;;;5.00;;
70420;SDS011;57848;51.938;15.520;2024-02-21T11:48:43;16.85;;;4.80;;
70420;SDS011;57848;51.938;15.520;2024-02-21T11:51:24;14.07;;;4.57;;
70420;SDS011;57848;51.938;15.520;2024-02-21T11:53:54;11.05;;;4.60;;
70420;SDS011;57848;51.938;15.520;2024-02-21T11:56:20;13.70;;;4.63;;
70420;SDS011;57848;51.938;15.520;2024-02-21T11:58:46;16.67;;;4.63;;
70420;SDS011;57848;51.938;15.520;2024-02-21T12:01:14;21.27;;;5.70;;
70420;SDS011;57848;51.938;15.520;2024-02-21T12:03:42;13.93;;;4.70;;
70420;SDS011;57848;51.938;15.520;2024-02-21T12:06:14;13.82;;;4.60;;
70420;SDS011;57848;51.938;15.520;2024-02-21T12:08:44;13.00;;;4.72;;
70420;SDS011;57848;51.938;15.520;2024-02-21T12:11:19;18.67;;;5.60;;
70420;SDS011;57848;51.938;15.520;2024-02-21T12:13:47;15.45;;;4.90;;
70420;SDS011;57848;51.938;15.520;2024-02-21T12:16:16;15.55;;;4.93;;
70420;SDS011;57848;51.938;15.520;2024-02-21T12:18:43;11.85;;;4.25;;
70420;SDS011;57848;51.938;15.520;2024-02-21T12:21:09;16.00;;;5.20;;
70420;SDS011;57848;51.938;15.520;2024-02-21T12:23:37;14.20;;;4.90;;
70420;SDS011;57848;51.938;15.520;2024-02-21T12:26:03;15.40;;;5.20;;
70420;SDS011;57848;51.938;15.520;2024-02-21T12:28:30;14.75;;;5.20;;
70420;SDS011;57848;51.938;15.520;2024-02-21T12:30:55;15.90;;;4.50;;
70420;SDS011;57848;51.938;15.520;2024-02-21T12:33:21;17.43;;;5.10;;
70420;SDS011;57848;51.938;15.520;2024-02-21T12:35:46;19.57;;;6.30;;
70420;SDS011;57848;51.938;15.520;2024-02-21T12:38:12;15.63;;;4.93;;
70420;SDS011;57848;51.938;15.520;2024-02-21T12:40:38;14.00;;;4.90;;
70420;SDS011;57848;51.938;15.520;2024-02-21T12:43:04;13.35;;;4.68;;
70420;SDS011;57848;51.938;15.520;2024-02-21T12:45:29;15.67;;;5.17;;
70420;SDS011;57848;51.938;15.520;2024-02-21T12:47:55;12.67;;;4.63;;
70420;SDS011;57848;51.938;15.520;2024-02-21T12:50:20;13.93;;;4.90;;
70420;SDS011;57848;51.938;15.520;2024-02-21T12:52:47;11.63;;;5.20;;
70420;SDS011;57848;51.938;15.520;2024-02-21T12:55:14;15.70;;;4.80;;
70420;SDS011;57848;51.938;15.520;2024-02-21T12:57:41;13.77;;;4.50;;
70420;SDS011;57848;51.938;15.520;2024-02-21T13:00:07;13.77;;;3.90;;
70420;SDS011;57848;51.938;15.520;2024-02-21T13:02:34;11.93;;;4.78;;
70420;SDS011;57848;51.938;15.520;2024-02-21T13:05:00;11.27;;;4.45;;
70420;SDS011;57848;51.938;15.520;2024-02-21T13:07:27;12.15;;;4.70;;
70420;SDS011;57848;51.938;15.520;2024-02-21T13:09:53;14.17;;;5.07;;
70420;SDS011;57848;51.938;15.520;2024-02-21T13:12:19;18.40;;;5.40;;
70420;SDS011;57848;51.938;15.520;2024-02-21T13:14:44;18.67;;;5.23;;
70420;SDS011;57848;51.938;15.520;2024-02-21T13:17:10;12.03;;;5.07;;
70420;SDS011;57848;51.938;15.520;2024-02-21T13:19:35;11.60;;;4.33;;
70420;SDS011;57848;51.938;15.520;2024-02-21T13:22:01;11.52;;;4.60;;
70420;SDS011;57848;51.938;15.520;2024-02-21T13:24:27;11.23;;;4.73;;
70420;SDS011;57848;51.938;15.520;2024-02-21T13:26:53;15.48;;;5.13;;
70420;SDS011;57848;51.938;15.520;2024-02-21T13:29:18;16.97;;;5.17;;
70420;SDS011;57848;51.938;15.520;2024-02-21T13:31:44;14.93;;;4.37;;
70420;SDS011;57848;51.938;15.520;2024-02-21T13:34:09;16.55;;;4.97;;
70420;SDS011;57848;51.938;15.520;2024-02-21T13:36:35;14.30;;;4.97;;
70420;SDS011;57848;51.938;15.520;2024-02-21T13:39:00;13.20;;;4.43;;
70420;SDS011;57848;51.938;15.520;2024-02-21T13:41:25;13.60;;;4.87;;
70420;SDS011;57848;51.938;15.520;2024-02-21T13:43:51;9.53;;;3.33;;
70420;SDS011;57848;51.938;15.520;2024-02-21T13:46:17;12.13;;;4.60;;
70420;SDS011;57848;51.938;15.520;2024-02-21T13:48:42;11.23;;;3.97;;
70420;SDS011;57848;51.938;15.520;2024-02-21T13:51:08;15.67;;;4.47;;
70420;SDS011;57848;51.938;15.520;2024-02-21T13:53:34;14.70;;;4.40;;
70420;SDS011;57848;51.938;15.520;2024-02-21T13:55:59;12.17;;;4.20;;
70420;SDS011;57848;51.938;15.520;2024-02-21T13:58:25;13.88;;;4.43;;
70420;SDS011;57848;51.938;15.520;2024-02-21T14:00:51;16.13;;;4.70;;
70420;SDS011;57848;51.938;15.520;2024-02-21T14:03:17;13.55;;;4.88;;
70420;SDS011;57848;51.938;15.520;2024-02-21T14:05:44;14.73;;;4.68;;
70420;SDS011;57848;51.938;15.520;2024-02-21T14:08:09;14.70;;;4.40;;
70420;SDS011;57848;51.938;15.520;2024-02-21T14:10:34;14.23;;;5.07;;
70420;SDS011;57848;51.938;15.520;2024-02-21T14:13:00;15.33;;;5.00;;
70420;SDS011;57848;51.938;15.520;2024-02-21T14:15:25;13.30;;;4.53;;
70420;SDS011;57848;51.938;15.520;2024-02-21T14:17:51;11.87;;;4.53;;
70420;SDS011;57848;51.938;15.520;2024-02-21T14:20:16;14.23;;;4.97;;
70420;SDS011;57848;51.938;15.520;2024-02-21T14:22:41;18.83;;;5.88;;
70420;SDS011;57848;51.938;15.520;2024-02-21T14:25:07;14.43;;;5.60;;